Luis Fernandez

Chefscout - Antofagasta
19 Aug 2027
Donnerstag
Verarbeitung

Persönlichkeit

Anpassungsfähigkeit (3) Ehrgeiz (12) Kontroverse (15) Loyalität (12) Druck (18) Professionalität (5) Fairness (20) Temperament (18)

Profil

Trainerstil Demokratisch
Lizenz Kontinentale Pro
Entschlossenheit 4
Menschenführung 6
Motivation 9
Disziplin 11
Arbeitszufriedenheit
91%
Ermüdung
0%
Rolle Chefscout
Gehalt 31.8K p/W
Vertrag 14.03.2028

Leistung

Verhalten Gut
Trainingseffektivität
26%
Spielerentwicklung
35%
Verletzungsprävention
40%
Taktische Umsetzung
25%

Letzte Ereignisse

Nahm an einer Scouting-Besprechung teil 7T her
Empfahl ein Transferziel 7T her
Nahm an einer Scouting-Besprechung teil 14T her
Empfahl ein Transferziel 14T her
Nahm an einer Scouting-Besprechung teil 21T her
Empfahl ein Transferziel 21T her
Nahm an einer Scouting-Besprechung teil 28T her
Empfahl ein Transferziel 28T her

Aktuell beobachtet

89
Spieler Verein Status Fähigkeit Vertrauen Beobachtet Zuletzt beobachtet Letzte Stimme
Sergio Carrasco Cobresal Verloren 94 / 99 72% 1 21.06.2027 Befürworten
Yastin Cuevas Colo-Colo Aktiv 98 / 105 69% 1 28.12.2026 Befürworten
Agustín Módica Gimnasia y Esgrima Aktiv 117 / 113 40% 1 04.11.2026 -
Gianluca Pugliese Güemes Aktiv 117 / 108 40% 1 04.11.2026 -
Esteban da Silva Racing Aktiv 107 / 115 40% 1 02.11.2026 -
Marcus Browne AFC Wimbledon Aktiv 107 / 98 40% 1 02.11.2026 -
Peter Christiansen Viking Aktiv 125 / 98 40% 1 02.11.2026 -
Jonás Luna Santa Clara Aktiv 127 / 126 40% 3 01.11.2026 -
Emiliano Saliadarre Miramar Misiones Aktiv 104 / 117 40% 1 01.11.2026 -
Nicolás Cordero Aldosivi Aktiv 112 / 123 40% 2 31.10.2026 -
Luciano Cosentino Wanderers Aktiv 126 / 115 40% 1 31.10.2026 -
Marcelo Torres Gimnasia La Plata Aktiv 117 / 124 40% 5 24.10.2026 -
Antony Alonso Deportivo Riestra Aktiv 120 / 132 40% 1 24.10.2026 -
Lisandro Cabrera Maipú Aktiv 121 / 111 40% 1 23.10.2026 -
Augusto Berrondo Tristán Suárez Aktiv 101 / 119 40% 1 23.10.2026 -
Javier Martínez Almirante Brown Aktiv 105 / 101 40% 1 23.10.2026 -
Sebastián Cocimano Nueva Chicago Aktiv 120 / 111 40% 2 22.10.2026 -
Morgan Guilavogui Real Salt Lake Aktiv 126 / 116 40% 2 21.10.2026 -
José Barreto Quilmes Aktiv 106 / 120 40% 1 21.10.2026 -
Mauro Valiente Estudiantes Aktiv 111 / 120 40% 2 20.10.2026 -
Franco García Ferro Carril Oeste Aktiv 106 / 121 40% 1 20.10.2026 -
Francisco Bonfiglio Boston River Aktiv 112 / 98 40% 1 19.10.2026 -
Enzo Cabrera Danubio Aktiv 112 / 104 40% 1 19.10.2026 -
Axel Pérez NK Domzale Aktiv 111 / 96 40% 1 18.10.2026 -
Misael Sosa Godoy Cruz Aktiv 116 / 104 40% 1 18.10.2026 -
Leonardo Campana New England Revolution Aktiv 124 / 135 40% 4 17.10.2026 -
Sead Hakšabanović Malmo FF Aktiv 124 / 117 40% 1 16.10.2026 -
Ramiro Ruiz Rodríguez Atlético Tucumán Aktiv 122 / 115 40% 4 15.10.2026 -
Carlos Gugenheim Almirante Brown Aktiv 107 / 113 40% 1 15.10.2026 -
Adolfo Muñoz Ruch Aktiv 113 / 128 40% 1 15.10.2026 -
Luca Martínez Dupuy Godoy Cruz Aktiv 119 / 111 40% 2 10.10.2026 -
Louis Munteanu DC United Aktiv 131 / 109 40% 1 09.10.2026 -
Renzo Reynaga Patronato Aktiv 106 / 115 40% 1 08.10.2026 -
Juan Mendoza Güemes Aktiv 97 / 105 40% 1 08.10.2026 -
Jonás Acevedo Instituto Aktiv 124 / 127 40% 1 07.10.2026 -
Martín Garnerone Estudiantes Aktiv 112 / 115 40% 1 06.10.2026 -
Juan Rocca Gimnasia y Tiro Aktiv 100 / 111 40% 1 06.10.2026 -
Cho Gue-Sung FC Midtjylland Aktiv 121 / 137 40% 1 03.10.2026 -
Everton Bala Levski Aktiv 116 / 104 40% 1 02.10.2026 -
Fabricio Rojas Gimnasia y Tiro Aktiv 106 / 99 40% 1 02.10.2026 -
Maximiliano Rodríguez Huachipato Aktiv 122 / 108 40% 1 02.10.2026 -
José Rivas Gamboa Trujillanos Aktiv 107 / 113 40% 2 01.10.2026 -
Cheikh Sabaly Vancouver Whitecaps Aktiv 130 / 143 40% 1 01.10.2026 -
Josh Sargent Toronto FC Aktiv 128 / 131 40% 2 30.09.2026 -
David Miculescu FCSB Aktiv 107 / 103 40% 2 30.09.2026 -
Agustín Anello Philadelphia Union Aktiv 123 / 105 40% 2 28.09.2026 -
Job Ochieng Real Sociedad Aktiv 98 / 88 40% 1 28.09.2026 -
Bruno Hernández Cerro Largo Aktiv 86 / 89 40% 1 28.09.2026 -
Agustín Fernández NK Zavrc Aktiv 97 / 105 40% 1 27.09.2026 -
Tio Cipot NK Maribor Aktiv 112 / 120 40% 1 27.09.2026 -
Prince Owusu CF Montreal Aktiv 122 / 127 40% 1 27.09.2026 -
Marcos Cuenca Zaragoza Aktiv 113 / 93 40% 3 23.09.2026 -
Tomás González Piast Aktiv 126 / 125 40% 3 23.09.2026 -
Luis Iberico Sporting Cristal Aktiv 115 / 123 40% 1 23.09.2026 -
Federico Girotti Alianza Lima Aktiv 127 / 125 40% 1 22.09.2026 -
Theo Corbeanu Toronto FC Aktiv 133 / 125 40% 1 21.09.2026 -
Enzo Avaro Odd Aktiv 114 / 109 40% 1 21.09.2026 -
Fabricio Oviedo Rosario Central Aktiv 104 / 117 40% 1 21.09.2026 -
Sam Surridge Nashville SC Aktiv 132 / 144 40% 1 19.09.2026 -
Alejandro Samudio Nacional Aktiv 112 / 119 40% 1 18.09.2026 -
Samuel Anakwe Remo Stars Aktiv 101 / 106 40% 1 16.09.2026 -
Duncan McGuire Houston Dynamo Aktiv 133 / 103 40% 1 15.09.2026 -
Rafael Navarro St. Louis CITY SC Aktiv 129 / 129 40% 1 15.09.2026 -
Sunday Megwo Abia Warriors Aktiv 108 / 84 40% 1 14.09.2026 -
Alan Cantero Alianza Lima Aktiv 116 / 128 40% 1 14.09.2026 -
Jeong Sang-Bin St. Louis CITY SC Aktiv 114 / 128 40% 2 12.09.2026 -
Lautaro Urtasún Sibenik Aktiv 77 / 72 40% 1 10.09.2026 -
José Luís Sanabria Slavia Sofia Aktiv 84 / 85 40% 1 09.09.2026 -
Agustín Venezia Iquique Aktiv 114 / 108 40% 1 09.09.2026 -
Alan Cisnero Shukura Aktiv 103 / 118 40% 1 08.09.2026 -
Kevin Kelsy Portland Timbers Aktiv 106 / 101 40% 1 05.09.2026 -
Juan Román Zarza BK Hacken Aktiv 96 / 86 40% 1 05.09.2026 -
Bruno Morales Cerro Aktiv 96 / 93 40% 1 02.09.2026 -
Marcelo Fernández Libertad Aktiv 111 / 113 40% 1 01.09.2026 -
Felipe Vizeu Sporting Cristal Aktiv 116 / 108 40% 2 30.08.2026 -
Tai Baribo DC United Aktiv 119 / 144 40% 1 30.08.2026 -
Luka Kurtovic NK Domzale Aktiv 135 / 129 40% 1 30.08.2026 -
Dejan Joveljić Seattle Sounders Aktiv 128 / 130 40% 1 26.08.2026 -
Andrés Molinas Alashkert Aktiv 89 / 84 40% 1 18.08.2026 -
Thiago Perugini San Lorenzo Aktiv 96 / 95 40% 1 14.08.2026 -
Jonatan Torres Cerro Porteno Aktiv 113 / 129 40% 1 11.08.2026 -
Ignacio Giacinti Patronato Aktiv 85 / 93 40% 1 11.08.2026 -
Diego Méndez Tacuarembo Aktiv 91 / 103 40% 1 09.08.2026 -
Franco Cristaldo Talleres Aktiv 133 / 131 40% 1 04.08.2026 -
Mariano Bracamonte Deportivo Riestra Aktiv 121 / 120 40% 1 04.08.2026 -
Mateo Ortale Maipú Aktiv 97 / 101 40% 1 03.08.2026 -
George Ayine Metropolitanos Aktiv 107 / 113 40% 1 03.08.2026 -
Lucas Pedraza Defensores Unidos Aktiv 97 / 105 40% 1 02.08.2026 -
Santiago Córdoba Deportivo Pasto Aktiv 106 / 100 40% 1 02.08.2026 -